KSJC/SJC METAR and TAF weather

Enter ICAO airport designator
Station Type Date Time Source
KSJC METAR 2018/12/19 09:44 UTC NOAA

KSJC 190944Z AUTO 00000KT 10SM BKN019 09/08 A3033 RMK AO2 T00940083


Station Type Date Time Source
KSJC Decoded METAR 2018/12/19 09:44 UTC NOAA

SAN JOSE INTERNATIONAL AIRPORT, CA, United States (KSJC) 37-22N 121-55W 25M
Dec 19, 2018 - 04:44 AM EST / 2018.12.19 0944 UTC
Wind: Calm:0
Visibility: 10 mile(s):0
Sky conditions: mostly cloudy
Temperature: 48.9 F (9.4 C)
Dew Point: 46.9 F (8.3 C)
Relative Humidity: 92%
Pressure (altimeter): 30.33 in. Hg (1027 hPa)
ob: KSJC 190944Z AUTO 00000KT 10SM BKN019 09/08 A3033 RMK AO2 T00940083
cycle: 9

Station Type Date Time Source
KSJC TAF 2018/12/19 06:40 UTC NOAA

TAF KSJC 190538Z 1906/2006 VRB03KT P6SM FEW020
FM191200 VRB03KT 6SM BR BKN025
FM191400 15003KT 5SM BR OVC010
FM191800 31008KT P6SM FEW025 SCT150


Example: see airport list